Bighorn, MT

2:39 PM MDT on September 22, 2014 (GMT -0600)
Forsyth Golf Course | Change Station
CLOSE
Current Station
Personal Weather Station
Location: Forsyth, MT
Elevation: 2552 ft
Nearby Weather Stations

Elev 2552 ft 46.25 °N, 106.72 °W | Updated 13 seconds ago

Partly Cloudy
Partly Cloudy
81.1 °F
Feels Like 81 °F
N
5.4
Wind Variable Wind from NW
Gusts 8.3 mph

Today
High -- | Low -- °F
--% Chance of Precip.
Yesterday
High -- | Low -- °F
Precip. -- in
6:55 AM 7:06 PM
Waning Crescent, 2% visible
Pressure 29.84 in
Visibility 10.0 miles
Clouds Clear
Heat Index 81 °F
Dew Point 52 °F
Humidity 39%
Rainfall 0.00 in
Snow Depth 0 in , 0 in , 0 in
UV 6 out of 12
Pollen 4.50 out of 12
Air Quality Not available.
Flu Activity Not available.
METAR KMLS 221953Z AUTO 17007KT 10SM CLR 24/08 A2988 RMK AO2 SLP104 T02440083

More Conditions Fewer Conditions

Pressure 29.84 in
Visibility 10.0 miles
Clouds Clear
Heat Index 81 °F
Dew Point 52 °F
Humidity 39%
Rainfall 0.00 in
Snow Depth 0 in , 0 in , 0 in
UV 6 out of 12
Pollen 4.50 out of 12
Air Quality Not available.
Flu Activity Not available.
METAR KMLS 221953Z AUTO 17007KT 10SM CLR 24/08 A2988 RMK AO2 SLP104 T02440083

More Conditions Fewer Conditions

10-Day Weather Forecast

Almanac

Astronomy

Sep. 22, 2014 Rise Set
Actual Time 6:55 AM MDT 7:06 PM MDT
Civil Twilight 6:25 AM MDT 7:35 PM MDT
Nautical Twilight 5:50 AM MDT 8:11 PM MDT
Astronomical Twilight 5:14 AM MDT 8:47 PM MDT
Moon 5:23 AM MDT 6:17 PM MDT
Length of Visible Light 13h 10m
Length of Day
12h 10m
Tomorrow will be 3m 14s shorter.
Waning Crescent, 2% of the Moon is Illuminated
Today
Waning Crescent
Sep 24
New
Oct 1
First Quarter
Oct 8
Full
Oct 15
Last Quarter

Today's Extremes

State Highs State Lows

Community

WunderPhotos

Upload Photos

1,755,522 photos uploaded!

WunderBlogs® & News

Nearby

Snow Depth

Station Depth Elevation
Northeast Entrance 0 in 7350 ft
Rocker Peak 0 in 8000 ft
Lone Mountain 0 in 8880 ft
Lakeview Ridge 0 in 7400 ft
Tepee Creek 0 in 8000 ft

Earthquake Activity

City Distance Mag. Time & Date
No recent earthquake activity has been reported nearby.
Minimum magnitude displayed is 2.5.

Coastal Water Temperatures

Place Temperature
No Stations Reporting

Nearby Weather Stations